Time;durP1;ratioP1;P1;durP2;ratioP2;P2;SDS_P1;SDS_P2;PMS_P1;PMS_P2;Temp;Humidity;BMP_temperature;BMP_pressure;BME280_temperature;BME280_humidity;BME280_pressure;Samples;Min_cycle;Max_cycle;Signal;HPM_P1;HPM_P2
2023/03/07 00:01:51;;;;;;;8.60;6.70;;;;;;;;;;5131082;27;20490;-60
2023/03/07 00:04:17;;;;;;;8.25;6.63;;;;;;;;;;5132882;27;20047;-59
2023/03/07 00:06:43;;;;;;;8.48;6.20;;;;;;;;;;5132428;27;20050;-58
2023/03/07 00:09:09;;;;;;;6.97;5.47;;;;;;;;;;5133268;27;20451;-59
2023/03/07 00:11:35;;;;;;;6.40;4.70;;;;;;;;;;5127989;27;20043;-63
2023/03/07 00:14:01;;;;;;;8.23;4.72;;;;;;;;;;5128278;27;20051;-58
2023/03/07 00:16:27;;;;;;;8.40;4.63;;;;;;;;;;5131822;27;20039;-60
2023/03/07 00:18:54;;;;;;;5.10;3.35;;;;;;;;;;5131200;27;20085;-60
2023/03/07 00:21:21;;;;;;;5.43;3.28;;;;;;;;;;5131423;27;20142;-58
2023/03/07 00:23:47;;;;;;;5.97;3.03;;;;;;;;;;5130628;27;20078;-58
2023/03/07 00:26:15;;;;;;;4.00;2.20;;;;;;;;;;5130638;27;20698;-59
2023/03/07 00:28:41;;;;;;;3.75;1.88;;;;;;;;;;5137163;27;20103;-60
2023/03/07 00:31:09;;;;;;;7.28;2.13;;;;;;;;;;5130323;27;20498;-59
2023/03/07 00:33:35;;;;;;;5.13;1.45;;;;;;;;;;5132826;27;20043;-58
2023/03/07 00:36:03;;;;;;;4.30;1.35;;;;;;;;;;5130249;27;20544;-59
2023/03/07 00:38:29;;;;;;;7.65;1.90;;;;;;;;;;5133559;27;20058;-58
2023/03/07 00:41:00;;;;;;;4.97;1.40;;;;;;;;;;5134464;27;20133;-58
2023/03/07 00:43:27;;;;;;;2.58;0.80;;;;;;;;;;5134675;27;20051;-61
2023/03/07 00:45:53;;;;;;;4.82;1.58;;;;;;;;;;5133965;27;20039;-60
2023/03/07 00:48:19;;;;;;;1.92;0.98;;;;;;;;;;5132694;27;20334;-58
2023/03/07 00:50:45;;;;;;;5.22;1.25;;;;;;;;;;5136748;27;20042;-59
2023/03/07 00:53:11;;;;;;;4.35;1.33;;;;;;;;;;5134806;27;20074;-58
2023/03/07 00:55:37;;;;;;;4.18;1.13;;;;;;;;;;5131594;27;20097;-61
2023/03/07 00:58:03;;;;;;;4.13;0.77;;;;;;;;;;5137401;27;20126;-58
2023/03/07 01:00:29;;;;;;;2.10;0.63;;;;;;;;;;5138245;27;20042;-59
2023/03/07 01:02:57;;;;;;;2.53;0.70;;;;;;;;;;5129446;27;20099;-61
2023/03/07 01:05:23;;;;;;;2.45;0.63;;;;;;;;;;5126577;27;20061;-60
2023/03/07 01:07:49;;;;;;;3.33;0.68;;;;;;;;;;5132376;27;20079;-58
2023/03/07 01:10:15;;;;;;;2.55;0.60;;;;;;;;;;5131736;27;20082;-58
2023/03/07 01:12:42;;;;;;;3.88;0.73;;;;;;;;;;5123732;27;20572;-58
2023/03/07 01:15:09;;;;;;;3.10;1.27;;;;;;;;;;5131662;27;20389;-59
2023/03/07 01:17:35;;;;;;;3.33;0.88;;;;;;;;;;5125380;27;20089;-59
2023/03/07 01:20:05;;;;;;;3.90;0.55;;;;;;;;;;5124807;27;20047;-59
2023/03/07 01:22:31;;;;;;;4.57;0.73;;;;;;;;;;5127542;27;20123;-59
2023/03/07 01:24:58;;;;;;;8.98;1.80;;;;;;;;;;5129444;27;20078;-58
2023/03/07 01:27:24;;;;;;;7.13;1.50;;;;;;;;;;5132145;27;20035;-59
2023/03/07 01:29:50;;;;;;;3.80;0.90;;;;;;;;;;5140327;27;20150;-58
2023/03/07 01:32:16;;;;;;;3.53;0.50;;;;;;;;;;5135008;27;20043;-59
2023/03/07 01:34:42;;;;;;;2.75;0.63;;;;;;;;;;5128228;27;20413;-59
2023/03/07 01:37:08;;;;;;;8.23;0.95;;;;;;;;;;5135853;27;20046;-59
2023/03/07 01:39:34;;;;;;;3.60;0.73;;;;;;;;;;5131820;27;20042;-58
2023/03/07 01:42:00;;;;;;;10.05;1.20;;;;;;;;;;5130090;27;20054;-59
2023/03/07 01:44:26;;;;;;;3.15;0.70;;;;;;;;;;5142975;27;20047;-58
2023/03/07 01:46:54;;;;;;;6.95;0.98;;;;;;;;;;5139372;27;20465;-59
2023/03/07 01:49:40;;;;;;;4.03;0.80;;;;;;;;;;5130179;27;20125;-58
2023/03/07 01:52:09;;;;;;;5.80;0.70;;;;;;;;;;5127098;27;20054;-59
2023/03/07 01:54:37;;;;;;;5.05;0.73;;;;;;;;;;5129598;27;20046;-59
2023/03/07 01:57:04;;;;;;;4.70;1.38;;;;;;;;;;5136358;27;20054;-62
2023/03/07 01:59:42;;;;;;;5.07;1.10;;;;;;;;;;5135763;27;20043;-59
2023/03/07 02:02:12;;;;;;;3.97;0.50;;;;;;;;;;5132849;27;20066;-58
2023/03/07 02:04:59;;;;;;;5.35;1.05;;;;;;;;;;5136309;27;20053;-58
2023/03/07 02:07:27;;;;;;;6.10;1.27;;;;;;;;;;5118991;27;20035;-60
2023/03/07 02:09:54;;;;;;;10.90;1.40;;;;;;;;;;5138450;27;20058;-59
2023/03/07 02:12:20;;;;;;;6.50;0.68;;;;;;;;;;5137773;27;20533;-58
2023/03/07 02:14:47;;;;;;;2.45;0.50;;;;;;;;;;5136620;27;20051;-59
2023/03/07 02:17:14;;;;;;;3.72;0.73;;;;;;;;;;5135094;27;20145;-58
2023/03/07 02:20:04;;;;;;;3.28;1.40;;;;;;;;;;5127086;27;20126;-60
2023/03/07 02:22:30;;;;;;;7.50;0.60;;;;;;;;;;5126800;27;20074;-58
2023/03/07 02:24:59;;;;;;;4.53;1.40;;;;;;;;;;5131260;27;20481;-58
2023/03/07 02:27:25;;;;;;;4.32;1.27;;;;;;;;;;5136185;27;20378;-60
2023/03/07 02:29:52;;;;;;;8.45;1.00;;;;;;;;;;5131083;27;20050;-59
2023/03/07 02:32:18;;;;;;;3.10;0.63;;;;;;;;;;5128586;27;20092;-59
2023/03/07 02:34:43;;;;;;;5.40;0.70;;;;;;;;;;5136457;27;20078;-59
2023/03/07 02:37:15;;;;;;;4.32;0.60;;;;;;;;;;5125085;27;20047;-58
2023/03/07 02:39:42;;;;;;;6.78;0.80;;;;;;;;;;5129382;27;20050;-60
2023/03/07 02:42:13;;;;;;;4.55;0.50;;;;;;;;;;5126378;27;20050;-60
2023/03/07 02:44:39;;;;;;;5.60;1.08;;;;;;;;;;5127557;27;20719;-59
2023/03/07 02:47:07;;;;;;;5.75;0.65;;;;;;;;;;5134420;27;20035;-58
2023/03/07 02:49:35;;;;;;;5.35;0.95;;;;;;;;;;5126007;27;20073;-58
2023/03/07 02:52:01;;;;;;;2.10;0.68;;;;;;;;;;5134265;27;20051;-58
2023/03/07 02:54:27;;;;;;;6.88;0.93;;;;;;;;;;5127508;27;20497;-60
2023/03/07 02:56:53;;;;;;;5.40;0.80;;;;;;;;;;5125809;27;20064;-58
2023/03/07 02:59:19;;;;;;;5.97;1.02;;;;;;;;;;5133916;27;20078;-59
2023/03/07 03:01:45;;;;;;;4.22;1.05;;;;;;;;;;5134055;27;20034;-58
2023/03/07 03:04:11;;;;;;;3.10;0.63;;;;;;;;;;5124854;27;20545;-60
2023/03/07 03:06:37;;;;;;;2.60;0.90;;;;;;;;;;5126160;27;20568;-59
2023/03/07 03:09:03;;;;;;;7.15;1.77;;;;;;;;;;5126973;27;20051;-59
2023/03/07 03:11:29;;;;;;;8.13;1.90;;;;;;;;;;5125642;27;20181;-59
2023/03/07 03:13:55;;;;;;;2.00;0.45;;;;;;;;;;5107022;27;20063;-58
2023/03/07 03:16:21;;;;;;;4.95;0.82;;;;;;;;;;5126120;27;20109;-59
2023/03/07 03:18:47;;;;;;;4.47;1.10;;;;;;;;;;5125791;27;20050;-58
2023/03/07 03:21:14;;;;;;;4.43;0.55;;;;;;;;;;5125145;27;20042;-60
2023/03/07 03:23:40;;;;;;;3.25;0.80;;;;;;;;;;5126188;27;20055;-60
2023/03/07 03:26:10;;;;;;;3.60;0.80;;;;;;;;;;5124803;27;20047;-58
2023/03/07 03:28:36;;;;;;;4.53;1.30;;;;;;;;;;5127960;27;20076;-59
2023/03/07 03:31:04;;;;;;;2.00;0.63;;;;;;;;;;5129678;27;20047;-58
2023/03/07 03:33:30;;;;;;;5.90;0.95;;;;;;;;;;5131553;27;20524;-58
2023/03/07 03:36:00;;;;;;;7.43;1.60;;;;;;;;;;5133162;27;20121;-58
2023/03/07 03:38:26;;;;;;;3.58;0.60;;;;;;;;;;5132239;27;20047;-60
2023/03/07 03:40:52;;;;;;;2.90;0.50;;;;;;;;;;5124153;27;20047;-58
2023/03/07 03:43:18;;;;;;;4.35;1.13;;;;;;;;;;5125451;27;20054;-60
2023/03/07 03:45:44;;;;;;;3.17;0.73;;;;;;;;;;5126005;27;20055;-58
2023/03/07 03:48:10;;;;;;;4.85;1.75;;;;;;;;;;5132602;27;20047;-60
2023/03/07 03:50:36;;;;;;;9.07;1.38;;;;;;;;;;5136071;27;20047;-59
2023/03/07 03:53:03;;;;;;;4.95;1.08;;;;;;;;;;5131924;27;20156;-59
2023/03/07 03:55:29;;;;;;;4.65;0.85;;;;;;;;;;5134403;27;20050;-57
2023/03/07 03:57:55;;;;;;;1.70;0.82;;;;;;;;;;5134227;27;20042;-59
2023/03/07 04:00:21;;;;;;;6.63;0.57;;;;;;;;;;5137207;27;20046;-59
2023/03/07 04:02:47;;;;;;;2.50;0.52;;;;;;;;;;5136366;27;20041;-59
2023/03/07 04:05:13;;;;;;;3.33;0.45;;;;;;;;;;5130652;27;20039;-60
2023/03/07 04:07:39;;;;;;;4.90;0.68;;;;;;;;;;5133748;27;20043;-58
2023/03/07 04:10:05;;;;;;;6.47;1.88;;;;;;;;;;5133083;27;20047;-59
2023/03/07 04:12:31;;;;;;;3.45;0.75;;;;;;;;;;5131090;27;20076;-58
2023/03/07 04:14:57;;;;;;;3.45;0.70;;;;;;;;;;5133890;27;20043;-60
2023/03/07 04:17:23;;;;;;;2.63;0.40;;;;;;;;;;5132868;27;20042;-59
2023/03/07 04:19:49;;;;;;;5.85;0.57;;;;;;;;;;5125287;27;20577;-59
2023/03/07 04:22:15;;;;;;;2.95;0.60;;;;;;;;;;5124034;27;20404;-60
2023/03/07 04:24:41;;;;;;;1.75;0.55;;;;;;;;;;5125180;27;20051;-59
2023/03/07 04:27:07;;;;;;;5.88;1.20;;;;;;;;;;5125701;27;20072;-60
2023/03/07 04:29:33;;;;;;;3.45;0.60;;;;;;;;;;5124775;27;20088;-58
2023/03/07 04:31:59;;;;;;;5.03;0.60;;;;;;;;;;5124555;27;20460;-58
2023/03/07 04:34:25;;;;;;;5.55;0.65;;;;;;;;;;5125656;27;20489;-59
2023/03/07 04:36:51;;;;;;;8.15;0.90;;;;;;;;;;5124004;27;20046;-59
2023/03/07 04:39:17;;;;;;;6.10;0.98;;;;;;;;;;5132477;27;20047;-59
2023/03/07 04:41:44;;;;;;;4.30;0.80;;;;;;;;;;5124521;27;20051;-58
2023/03/07 04:44:10;;;;;;;3.42;0.52;;;;;;;;;;5123837;27;20323;-58
2023/03/07 04:46:36;;;;;;;4.18;0.85;;;;;;;;;;5128248;27;20085;-62
2023/03/07 04:49:02;;;;;;;4.75;0.73;;;;;;;;;;5127007;27;20051;-59
2023/03/07 04:51:28;;;;;;;4.10;0.75;;;;;;;;;;5124802;27;20049;-58
2023/03/07 04:53:54;;;;;;;1.90;0.80;;;;;;;;;;5124475;27;20543;-61
2023/03/07 04:56:20;;;;;;;4.32;0.77;;;;;;;;;;5124285;27;20053;-59
2023/03/07 04:58:46;;;;;;;4.22;0.82;;;;;;;;;;5125895;27;20047;-59
2023/03/07 05:01:13;;;;;;;2.28;0.50;;;;;;;;;;5128353;27;20045;-57
2023/03/07 05:03:39;;;;;;;2.63;0.68;;;;;;;;;;5128067;27;20047;-58
2023/03/07 05:06:06;;;;;;;1.35;0.40;;;;;;;;;;5128004;27;20550;-60
2023/03/07 05:08:33;;;;;;;1.77;0.65;;;;;;;;;;5129859;27;20086;-59
2023/03/07 05:10:59;;;;;;;2.50;0.50;;;;;;;;;;5128316;27;20152;-58
2023/03/07 05:13:25;;;;;;;5.68;1.02;;;;;;;;;;5135447;27;20445;-60
2023/03/07 05:15:52;;;;;;;4.18;0.60;;;;;;;;;;5128439;27;20043;-59
2023/03/07 05:18:18;;;;;;;2.72;0.73;;;;;;;;;;5140313;27;20049;-58
2023/03/07 05:20:44;;;;;;;4.03;0.65;;;;;;;;;;5128490;27;20074;-59
2023/03/07 05:23:10;;;;;;;3.63;0.68;;;;;;;;;;5131931;27;20119;-59
2023/03/07 05:25:36;;;;;;;3.30;0.70;;;;;;;;;;5135722;27;20046;-58
2023/03/07 05:28:02;;;;;;;3.25;0.75;;;;;;;;;;5134705;27;20046;-60
2023/03/07 05:30:28;;;;;;;4.03;0.70;;;;;;;;;;5137028;27;20494;-59
2023/03/07 05:32:54;;;;;;;2.40;0.50;;;;;;;;;;5132886;27;20042;-59
2023/03/07 05:35:23;;;;;;;3.35;0.35;;;;;;;;;;5134958;27;20055;-59
2023/03/07 05:37:49;;;;;;;2.83;0.73;;;;;;;;;;5135202;27;20122;-60
2023/03/07 05:40:16;;;;;;;2.45;0.70;;;;;;;;;;5134383;27;20042;-59
2023/03/07 05:42:42;;;;;;;1.80;0.38;;;;;;;;;;5137299;27;20088;-58
2023/03/07 05:45:09;;;;;;;2.85;1.20;;;;;;;;;;5135051;27;20047;-60
2023/03/07 05:47:35;;;;;;;3.92;0.55;;;;;;;;;;5137631;27;20046;-60
2023/03/07 05:50:01;;;;;;;2.28;0.68;;;;;;;;;;5135792;27;20039;-60
2023/03/07 05:52:28;;;;;;;2.72;0.40;;;;;;;;;;5137166;27;20050;-59
2023/03/07 05:54:54;;;;;;;3.40;1.27;;;;;;;;;;5134704;27;20560;-58
2023/03/07 05:57:21;;;;;;;2.40;0.60;;;;;;;;;;5141751;27;20485;-60
2023/03/07 05:59:47;;;;;;;1.88;0.28;;;;;;;;;;5137371;27;20047;-60
2023/03/07 06:02:13;;;;;;;1.90;0.43;;;;;;;;;;5133474;27;20051;-59
2023/03/07 06:04:39;;;;;;;1.55;0.43;;;;;;;;;;5135268;27;20050;-58
2023/03/07 06:07:05;;;;;;;4.00;0.80;;;;;;;;;;5137225;27;20051;-58
2023/03/07 06:09:31;;;;;;;1.55;0.40;;;;;;;;;;5135334;27;20055;-59
2023/03/07 06:11:57;;;;;;;1.38;0.43;;;;;;;;;;5141054;27;20107;-58
2023/03/07 06:14:23;;;;;;;1.23;0.40;;;;;;;;;;5139882;27;20034;-58
2023/03/07 06:16:49;;;;;;;2.08;0.43;;;;;;;;;;5138167;27;20087;-58
2023/03/07 06:19:15;;;;;;;1.42;0.25;;;;;;;;;;5140102;27;20125;-59
2023/03/07 06:21:42;;;;;;;3.33;0.40;;;;;;;;;;5135532;27;20486;-59
2023/03/07 06:24:08;;;;;;;2.55;0.30;;;;;;;;;;5138067;27;20082;-58
2023/03/07 06:26:34;;;;;;;0.70;0.40;;;;;;;;;;5138489;27;20687;-58
2023/03/07 06:29:00;;;;;;;1.38;0.28;;;;;;;;;;5133468;27;20043;-61
2023/03/07 06:31:27;;;;;;;3.22;0.55;;;;;;;;;;5135633;27;20051;-60
2023/03/07 06:33:53;;;;;;;1.98;0.50;;;;;;;;;;5130169;27;20073;-59
2023/03/07 06:36:20;;;;;;;2.97;0.55;;;;;;;;;;5135792;27;20046;-61
2023/03/07 06:38:46;;;;;;;2.95;0.30;;;;;;;;;;5138143;27;20051;-60
2023/03/07 06:41:12;;;;;;;1.17;0.30;;;;;;;;;;5132478;27;20462;-62
2023/03/07 06:43:38;;;;;;;0.82;0.30;;;;;;;;;;5132264;27;20513;-58
2023/03/07 06:46:05;;;;;;;2.55;0.55;;;;;;;;;;5136537;27;20042;-58
2023/03/07 06:48:32;;;;;;;2.60;0.55;;;;;;;;;;5136983;27;20051;-58
2023/03/07 06:50:58;;;;;;;2.30;0.32;;;;;;;;;;5135508;27;20054;-58
2023/03/07 06:53:24;;;;;;;1.77;0.50;;;;;;;;;;5131432;27;20030;-58
2023/03/07 06:55:51;;;;;;;1.52;0.52;;;;;;;;;;5130063;27;20557;-58
2023/03/07 06:58:18;;;;;;;3.70;0.50;;;;;;;;;;5140441;27;20043;-60
2023/03/07 07:00:44;;;;;;;1.02;0.40;;;;;;;;;;5135849;27;20582;-60
2023/03/07 07:03:14;;;;;;;0.52;0.35;;;;;;;;;;5117545;27;20051;-58
2023/03/07 07:05:40;;;;;;;1.30;0.32;;;;;;;;;;5135661;27;20043;-58
2023/03/07 07:08:06;;;;;;;0.95;0.25;;;;;;;;;;5135918;27;20086;-58
2023/03/07 07:10:32;;;;;;;1.42;0.40;;;;;;;;;;5135597;27;20050;-60
2023/03/07 07:12:58;;;;;;;0.50;0.20;;;;;;;;;;5136593;27;20043;-60
2023/03/07 07:15:24;;;;;;;0.93;0.20;;;;;;;;;;5131616;27;20478;-58
2023/03/07 07:17:51;;;;;;;0.75;0.17;;;;;;;;;;5130873;27;20535;-58
2023/03/07 07:20:17;;;;;;;1.08;0.20;;;;;;;;;;5134456;27;20035;-58
2023/03/07 07:22:43;;;;;;;1.17;0.38;;;;;;;;;;5133222;27;20092;-60
2023/03/07 07:25:09;;;;;;;1.45;0.20;;;;;;;;;;5136147;27;20039;-59
2023/03/07 07:27:35;;;;;;;0.30;0.30;;;;;;;;;;5136650;27;20065;-60
2023/03/07 07:30:02;;;;;;;1.65;0.32;;;;;;;;;;5136575;27;20389;-59
2023/03/07 07:32:28;;;;;;;1.25;0.30;;;;;;;;;;5136383;27;20047;-58
2023/03/07 07:34:54;;;;;;;2.55;0.60;;;;;;;;;;5132955;27;20069;-58
2023/03/07 07:37:20;;;;;;;0.65;0.17;;;;;;;;;;5135923;27;20134;-58
2023/03/07 07:39:46;;;;;;;1.33;0.60;;;;;;;;;;5133208;27;20054;-60
2023/03/07 07:42:12;;;;;;;0.73;0.20;;;;;;;;;;5137326;27;20080;-60
2023/03/07 07:44:38;;;;;;;0.80;0.38;;;;;;;;;;5135451;27;20043;-59
2023/03/07 07:47:04;;;;;;;0.63;0.28;;;;;;;;;;5133161;27;20039;-58
2023/03/07 07:49:30;;;;;;;4.05;0.60;;;;;;;;;;5136419;27;20050;-59
2023/03/07 07:51:56;;;;;;;2.40;0.30;;;;;;;;;;5135869;27;20040;-58
2023/03/07 07:54:22;;;;;;;1.80;0.57;;;;;;;;;;5136826;27;20515;-59
2023/03/07 07:56:48;;;;;;;1.63;0.50;;;;;;;;;;5137405;27;20036;-59
2023/03/07 07:59:14;;;;;;;3.53;1.48;;;;;;;;;;5134619;27;20063;-59
2023/03/07 08:01:40;;;;;;;0.70;0.50;;;;;;;;;;5136755;27;20305;-60
2023/03/07 08:04:07;;;;;;;1.52;0.50;;;;;;;;;;5133790;27;20066;-58
2023/03/07 08:06:33;;;;;;;5.43;1.17;;;;;;;;;;5129573;27;20050;-59
2023/03/07 08:08:59;;;;;;;5.10;0.77;;;;;;;;;;5137005;27;20055;-58
2023/03/07 08:11:25;;;;;;;0.98;0.40;;;;;;;;;;5134412;27;20045;-60
2023/03/07 08:13:51;;;;;;;2.17;0.60;;;;;;;;;;5137404;27;20057;-58
2023/03/07 08:16:18;;;;;;;3.78;0.60;;;;;;;;;;5132659;27;20814;-59
2023/03/07 08:18:49;;;;;;;4.03;0.70;;;;;;;;;;5139879;27;20050;-59
2023/03/07 08:21:15;;;;;;;2.53;1.02;;;;;;;;;;5141150;27;20550;-58
2023/03/07 08:23:41;;;;;;;3.25;0.88;;;;;;;;;;5136976;27;20065;-58
2023/03/07 08:26:08;;;;;;;6.40;0.70;;;;;;;;;;5134659;27;20047;-58
2023/03/07 08:28:35;;;;;;;1.58;0.50;;;;;;;;;;5135584;27;20047;-57
2023/03/07 08:31:15;;;;;;;5.53;1.27;;;;;;;;;;5136601;27;20050;-58
2023/03/07 08:33:41;;;;;;;3.10;0.50;;;;;;;;;;5132088;27;20051;-59
2023/03/07 08:36:07;;;;;;;1.67;0.30;;;;;;;;;;5133849;27;20043;-60
2023/03/07 08:38:33;;;;;;;2.97;0.65;;;;;;;;;;5136710;27;20050;-58
2023/03/07 08:41:00;;;;;;;3.33;0.60;;;;;;;;;;5133977;27;20039;-59
2023/03/07 08:43:28;;;;;;;1.60;0.45;;;;;;;;;;5114394;27;20055;-58
2023/03/07 08:45:54;;;;;;;1.10;0.30;;;;;;;;;;5113708;27;20039;-59
2023/03/07 08:48:20;;;;;;;4.82;0.70;;;;;;;;;;5124542;27;20569;-58
2023/03/07 08:50:46;;;;;;;1.85;0.30;;;;;;;;;;5136048;27;20137;-61
2023/03/07 08:53:13;;;;;;;3.28;0.40;;;;;;;;;;5137681;27;20042;-59
2023/03/07 08:55:40;;;;;;;4.32;1.15;;;;;;;;;;5136976;27;20039;-60
2023/03/07 08:58:06;;;;;;;5.20;1.40;;;;;;;;;;5132482;27;20126;-55
2023/03/07 09:00:32;;;;;;;2.80;0.75;;;;;;;;;;5142227;27;20064;-54
2023/03/07 09:03:00;;;;;;;5.28;1.45;;;;;;;;;;5129483;27;20031;-57
2023/03/07 09:05:26;;;;;;;4.38;0.93;;;;;;;;;;5140990;27;20055;-58
2023/03/07 09:07:52;;;;;;;2.17;0.40;;;;;;;;;;5140715;27;20598;-60
2023/03/07 09:10:19;;;;;;;0.98;0.30;;;;;;;;;;5132723;27;20081;-59
2023/03/07 09:12:46;;;;;;;1.77;0.47;;;;;;;;;;5138213;27;20055;-60
2023/03/07 09:15:12;;;;;;;1.10;0.40;;;;;;;;;;5139798;27;20122;-58
2023/03/07 09:17:38;;;;;;;1.23;0.30;;;;;;;;;;5132841;27;20743;-58
2023/03/07 09:20:05;;;;;;;3.90;0.60;;;;;;;;;;5135622;27;20449;-60
2023/03/07 09:22:31;;;;;;;2.83;0.52;;;;;;;;;;5139153;27;20051;-60
2023/03/07 09:24:57;;;;;;;3.00;0.45;;;;;;;;;;5140985;27;20074;-58
2023/03/07 09:27:23;;;;;;;1.92;0.85;;;;;;;;;;5135384;27;20043;-58
2023/03/07 09:29:50;;;;;;;2.92;0.88;;;;;;;;;;5130215;27;20071;-60
2023/03/07 09:32:16;;;;;;;1.92;0.40;;;;;;;;;;5132586;27;20042;-60
2023/03/07 09:34:42;;;;;;;1.60;0.40;;;;;;;;;;5141713;27;20409;-59
2023/03/07 09:37:08;;;;;;;2.67;0.52;;;;;;;;;;5135496;27;20066;-58
2023/03/07 09:39:34;;;;;;;1.55;0.38;;;;;;;;;;5136087;27;20126;-59
2023/03/07 09:42:06;;;;;;;1.90;0.32;;;;;;;;;;5139358;27;20055;-58
2023/03/07 09:44:49;;;;;;;3.63;0.98;;;;;;;;;;5148396;27;20046;-60
2023/03/07 09:47:32;;;;;;;1.27;0.73;;;;;;;;;;5128854;27;22120;-60
2023/03/07 09:49:58;;;;;;;3.33;0.75;;;;;;;;;;5130391;27;20464;-58
2023/03/07 09:52:27;;;;;;;1.15;0.45;;;;;;;;;;5142479;27;20069;-59
2023/03/07 09:54:53;;;;;;;2.45;0.50;;;;;;;;;;5136088;27;20062;-60
2023/03/07 09:57:23;;;;;;;1.30;0.40;;;;;;;;;;5146477;27;20042;-62
2023/03/07 09:59:51;;;;;;;1.48;0.32;;;;;;;;;;5142973;27;20427;-58
2023/03/07 10:02:23;;;;;;;2.30;0.60;;;;;;;;;;5133177;27;20056;-58
2023/03/07 10:04:58;;;;;;;0.85;0.38;;;;;;;;;;5127566;27;20444;-58
2023/03/07 10:07:26;;;;;;;0.77;0.30;;;;;;;;;;5127655;27;20107;-58
2023/03/07 10:10:06;;;;;;;1.67;0.35;;;;;;;;;;5128119;27;20058;-59
2023/03/07 10:12:51;;;;;;;3.50;0.60;;;;;;;;;;5127817;27;20045;-59
2023/03/07 10:15:37;;;;;;;5.38;0.95;;;;;;;;;;5107767;27;20043;-60
2023/03/07 10:18:14;;;;;;;2.38;0.65;;;;;;;;;;5126620;27;20047;-58
2023/03/07 10:20:47;;;;;;;1.00;0.35;;;;;;;;;;5127827;27;20047;-58
2023/03/07 10:23:22;;;;;;;1.42;0.63;;;;;;;;;;5128069;27;20055;-58
2023/03/07 10:26:02;;;;;;;1.95;0.55;;;;;;;;;;5130540;27;20046;-58
2023/03/07 10:28:30;;;;;;;1.48;0.60;;;;;;;;;;5144963;27;20432;-58
2023/03/07 10:30:59;;;;;;;2.20;0.50;;;;;;;;;;5140364;27;20057;-58
2023/03/07 10:33:26;;;;;;;2.13;0.60;;;;;;;;;;5136861;27;20046;-59
2023/03/07 10:36:12;;;;;;;1.38;0.50;;;;;;;;;;5127319;27;20481;-58
2023/03/07 10:38:47;;;;;;;2.17;0.65;;;;;;;;;;5137882;27;20043;-58
2023/03/07 10:41:15;;;;;;;2.47;0.50;;;;;;;;;;5131126;27;20043;-58
2023/03/07 10:43:42;;;;;;;2.58;0.80;;;;;;;;;;5142908;27;20513;-57
2023/03/07 10:46:11;;;;;;;3.30;0.77;;;;;;;;;;5139525;27;20346;-58
2023/03/07 10:48:39;;;;;;;1.45;0.60;;;;;;;;;;5138397;27;20501;-58
2023/03/07 10:51:08;;;;;;;1.10;0.32;;;;;;;;;;5142659;27;20042;-60
2023/03/07 10:53:36;;;;;;;3.25;0.77;;;;;;;;;;5138064;27;20494;-59
2023/03/07 10:56:09;;;;;;;3.35;0.85;;;;;;;;;;5130530;27;20043;-58
2023/03/07 10:58:35;;;;;;;2.33;0.70;;;;;;;;;;5141022;27;20573;-58
2023/03/07 11:01:01;;;;;;;3.35;0.77;;;;;;;;;;5141972;27;20085;-59
2023/03/07 11:03:47;;;;;;;4.60;1.60;;;;;;;;;;5126741;27;20082;-61
2023/03/07 11:06:28;;;;;;;4.10;0.93;;;;;;;;;;5133321;27;20034;-58
2023/03/07 11:08:57;;;;;;;7.25;1.10;;;;;;;;;;5138990;27;20039;-58
2023/03/07 11:11:25;;;;;;;2.80;0.95;;;;;;;;;;5139355;27;20043;-59
2023/03/07 11:14:08;;;;;;;6.95;1.17;;;;;;;;;;5140821;27;20065;-58
2023/03/07 11:16:39;;;;;;;3.17;1.02;;;;;;;;;;5130102;27;20139;-59
2023/03/07 11:19:23;;;;;;;3.78;1.10;;;;;;;;;;5131527;27;20042;-62
2023/03/07 11:21:53;;;;;;;3.67;0.70;;;;;;;;;;5136545;27;20042;-58
2023/03/07 11:24:22;;;;;;;2.70;0.45;;;;;;;;;;5145876;27;20479;-58
2023/03/07 11:26:52;;;;;;;2.63;0.52;;;;;;;;;;5136463;27;20035;-58
2023/03/07 11:29:18;;;;;;;4.22;1.95;;;;;;;;;;5133020;27;20057;-58
2023/03/07 11:31:47;;;;;;;1.83;0.90;;;;;;;;;;5127009;27;20043;-58
2023/03/07 11:34:31;;;;;;;9.25;1.23;;;;;;;;;;5124296;27;20047;-58
2023/03/07 11:37:14;;;;;;;4.72;0.82;;;;;;;;;;5132938;27;20050;-58
2023/03/07 11:39:47;;;;;;;3.42;0.60;;;;;;;;;;5128292;27;20074;-58
2023/03/07 11:42:21;;;;;;;3.97;0.63;;;;;;;;;;5126186;27;20067;-58
2023/03/07 11:45:02;;;;;;;2.67;0.60;;;;;;;;;;5125668;27;20490;-59
2023/03/07 11:47:33;;;;;;;2.45;0.40;;;;;;;;;;5127006;27;20039;-58
2023/03/07 11:50:16;;;;;;;7.25;1.58;;;;;;;;;;5129848;27;20050;-59
2023/03/07 11:52:44;;;;;;;2.88;0.40;;;;;;;;;;5128973;27;20047;-59
2023/03/07 11:55:19;;;;;;;2.53;0.80;;;;;;;;;;5146050;27;20097;-58
2023/03/07 11:58:04;;;;;;;2.40;0.70;;;;;;;;;;5146393;27;20111;-58
2023/03/07 12:00:33;;;;;;;2.38;0.22;;;;;;;;;;5147328;27;20473;-59
2023/03/07 12:03:05;;;;;;;7.30;0.75;;;;;;;;;;5146428;27;20091;-59
2023/03/07 12:05:43;;;;;;;3.08;0.60;;;;;;;;;;5143422;27;20078;-59
2023/03/07 12:08:35;;;;;;;6.00;0.63;;;;;;;;;;5139601;27;20138;-58
2023/03/07 12:11:01;;;;;;;5.03;0.95;;;;;;;;;;5089733;27;20055;-60
2023/03/07 12:13:48;;;;;;;2.63;0.40;;;;;;;;;;5136587;27;20104;-58
2023/03/07 12:16:33;;;;;;;2.97;0.45;;;;;;;;;;5145427;27;20064;-58
2023/03/07 12:19:02;;;;;;;2.65;0.70;;;;;;;;;;5145948;27;20481;-58
2023/03/07 12:21:47;;;;;;;1.60;0.55;;;;;;;;;;5138139;27;20043;-58
2023/03/07 12:24:20;;;;;;;3.95;0.68;;;;;;;;;;5136293;27;20109;-58
2023/03/07 12:26:46;;;;;;;3.95;0.30;;;;;;;;;;5146310;27;20126;-58
2023/03/07 12:29:17;;;;;;;3.22;0.43;;;;;;;;;;5146290;27;20187;-58
2023/03/07 12:31:44;;;;;;;1.65;0.60;;;;;;;;;;5139671;27;20412;-59
2023/03/07 12:34:13;;;;;;;4.10;0.90;;;;;;;;;;5133416;27;20051;-60
2023/03/07 12:36:45;;;;;;;2.42;0.55;;;;;;;;;;5128789;27;20485;-60
2023/03/07 12:39:14;;;;;;;2.47;0.50;;;;;;;;;;5137812;27;20047;-58
2023/03/07 12:41:53;;;;;;;3.72;0.95;;;;;;;;;;5126755;27;20043;-58
2023/03/07 12:44:39;;;;;;;2.10;0.80;;;;;;;;;;5129660;27;20094;-58
2023/03/07 12:47:05;;;;;;;2.65;0.40;;;;;;;;;;5125017;27;20043;-58
2023/03/07 12:49:48;;;;;;;6.03;0.80;;;;;;;;;;5120682;27;20060;-58
2023/03/07 12:52:17;;;;;;;4.32;1.05;;;;;;;;;;5134636;27;20129;-58
2023/03/07 12:54:50;;;;;;;2.50;0.30;;;;;;;;;;5125270;27;20074;-59
2023/03/07 12:57:25;;;;;;;3.20;0.70;;;;;;;;;;5135568;27;20050;-58
2023/03/07 12:59:52;;;;;;;3.70;1.10;;;;;;;;;;5129178;27;20142;-57
2023/03/07 13:02:29;;;;;;;4.25;1.13;;;;;;;;;;5124996;28;20039;-58
2023/03/07 13:04:56;;;;;;;2.40;0.70;;;;;;;;;;5106627;28;20047;-58
2023/03/07 13:07:32;;;;;;;2.17;0.43;;;;;;;;;;5117700;27;20057;-60
2023/03/07 13:10:00;;;;;;;3.22;0.50;;;;;;;;;;5145375;27;20051;-58
2023/03/07 13:12:29;;;;;;;1.15;0.70;;;;;;;;;;5133255;27;20058;-59
2023/03/07 13:14:59;;;;;;;1.30;0.57;;;;;;;;;;5147716;27;20164;-57
2023/03/07 13:17:32;;;;;;;2.17;0.55;;;;;;;;;;5138790;27;20058;-58
2023/03/07 13:20:03;;;;;;;3.70;0.50;;;;;;;;;;5133759;27;20728;-58
2023/03/07 13:22:29;;;;;;;2.15;0.68;;;;;;;;;;5130865;27;20054;-57
2023/03/07 13:25:14;;;;;;;3.35;1.20;;;;;;;;;;5134712;27;20047;-58
2023/03/07 13:27:40;;;;;;;2.65;0.65;;;;;;;;;;5131357;27;20468;-58
2023/03/07 13:30:09;;;;;;;4.95;1.10;;;;;;;;;;5117750;27;20031;-58
2023/03/07 13:32:50;;;;;;;3.50;0.60;;;;;;;;;;5132740;27;20046;-58
2023/03/07 13:35:37;;;;;;;1.85;0.50;;;;;;;;;;5136290;27;20050;-57
2023/03/07 13:38:12;;;;;;;2.47;0.30;;;;;;;;;;5116724;27;20412;-58
2023/03/07 13:40:47;;;;;;;2.80;0.50;;;;;;;;;;5134240;27;20043;-57
2023/03/07 13:43:19;;;;;;;1.58;0.50;;;;;;;;;;5132692;27;20482;-59
2023/03/07 13:45:58;;;;;;;0.40;0.30;;;;;;;;;;5142465;27;20048;-58
2023/03/07 13:48:29;;;;;;;1.27;0.30;;;;;;;;;;5131319;27;20124;-58
2023/03/07 13:50:58;;;;;;;1.90;0.73;;;;;;;;;;5131777;27;20043;-58
2023/03/07 13:53:28;;;;;;;1.58;0.47;;;;;;;;;;5141049;27;20046;-58
2023/03/07 13:56:13;;;;;;;1.42;0.65;;;;;;;;;;5137318;27;20043;-62
2023/03/07 13:58:45;;;;;;;3.78;0.65;;;;;;;;;;5130969;27;20035;-58
2023/03/07 14:01:27;;;;;;;2.72;0.80;;;;;;;;;;5135850;27;20107;-58
2023/03/07 14:04:12;;;;;;;1.13;0.30;;;;;;;;;;5128826;27;20397;-58
2023/03/07 14:06:42;;;;;;;2.15;0.73;;;;;;;;;;5131981;27;20050;-58
2023/03/07 14:09:13;;;;;;;0.80;0.40;;;;;;;;;;5139317;27;20039;-58
2023/03/07 14:11:59;;;;;;;1.77;0.35;;;;;;;;;;5131577;27;20045;-58
2023/03/07 14:14:29;;;;;;;1.85;0.60;;;;;;;;;;5128397;27;20089;-58
2023/03/07 14:17:07;;;;;;;1.85;0.30;;;;;;;;;;5134248;27;20494;-58
2023/03/07 14:19:33;;;;;;;1.65;0.20;;;;;;;;;;5129900;27;20074;-58
2023/03/07 14:22:02;;;;;;;2.75;0.57;;;;;;;;;;5131485;27;20360;-58
2023/03/07 14:24:38;;;;;;;2.05;0.28;;;;;;;;;;5127535;27;20047;-58
2023/03/07 14:27:05;;;;;;;3.47;0.68;;;;;;;;;;5134355;27;20762;-58
2023/03/07 14:29:31;;;;;;;1.42;0.30;;;;;;;;;;5134313;27;20501;-58
2023/03/07 14:31:59;;;;;;;1.55;0.40;;;;;;;;;;5141689;27;20053;-58
2023/03/07 14:34:28;;;;;;;0.30;0.20;;;;;;;;;;5130953;27;20043;-58
2023/03/07 14:36:56;;;;;;;0.50;0.20;;;;;;;;;;5116496;27;20117;-59
2023/03/07 14:39:23;;;;;;;2.30;0.30;;;;;;;;;;5147008;27;20050;-58
2023/03/07 14:41:49;;;;;;;0.85;0.17;;;;;;;;;;5146239;27;20078;-58
2023/03/07 14:44:15;;;;;;;1.95;0.30;;;;;;;;;;5131338;27;20115;-62
2023/03/07 14:46:50;;;;;;;0.75;0.30;;;;;;;;;;5144224;27;20067;-62
2023/03/07 14:49:19;;;;;;;1.52;0.30;;;;;;;;;;5140161;27;20203;-62
2023/03/07 14:51:45;;;;;;;1.95;0.30;;;;;;;;;;5157371;27;20480;-63
2023/03/07 14:54:15;;;;;;;0.47;0.20;;;;;;;;;;5158271;27;20046;-62